Time;durP1;ratioP1;P1;durP2;ratioP2;P2;SDS_P1;SDS_P2;PMS_P1;PMS_P2;Temp;Humidity;BMP_temperature;BMP_pressure;BME280_temperature;BME280_humidity;BME280_pressure;Samples;Min_cycle;Max_cycle;Signal;HPM_P1;HPM_P2
2022/07/19 00:01:18;;;;;;;5.47;2.70;;;22.70;70.20;;;;;;7049564;28;20425;-78
2022/07/19 00:04:40;;;;;;;5.07;2.70;;;22.80;70.60;;;;;;7043124;28;20432;-77
2022/07/19 00:08:02;;;;;;;5.53;2.80;;;22.80;70.50;;;;;;7059276;28;20421;-76
2022/07/19 00:11:24;;;;;;;5.00;2.55;;;22.70;70.90;;;;;;7037775;28;20433;-76
2022/07/19 00:14:46;;;;;;;5.00;2.65;;;22.70;71.20;;;;;;7024458;28;20532;-79
2022/07/19 00:18:09;;;;;;;4.70;2.80;;;22.70;71.00;;;;;;7025914;28;20543;-79
2022/07/19 00:21:31;;;;;;;5.20;2.70;;;22.40;71.70;;;;;;7050029;28;20431;-78
2022/07/19 00:24:53;;;;;;;5.07;2.80;;;22.30;72.20;;;;;;7037355;28;20453;-78
2022/07/19 00:28:15;;;;;;;5.28;2.90;;;22.20;72.60;;;;;;7038535;28;20432;-77
2022/07/19 00:31:37;;;;;;;5.78;3.10;;;21.90;73.20;;;;;;7013822;28;20425;-79
2022/07/19 00:35:01;;;;;;;5.55;3.00;;;21.70;73.80;;;;;;7026096;28;20474;-78
2022/07/19 00:38:23;;;;;;;7.15;3.20;;;21.80;74.50;;;;;;7026835;28;20513;-77
2022/07/19 00:41:45;;;;;;;5.20;3.20;;;21.80;74.70;;;;;;7026312;28;20904;-77
2022/07/19 00:45:08;;;;;;;5.47;2.88;;;22.00;74.30;;;;;;7030325;28;20895;-79
2022/07/19 00:48:30;;;;;;;5.17;2.87;;;22.00;73.90;;;;;;7033676;28;20490;-80
2022/07/19 00:51:55;;;;;;;6.55;3.00;;;22.10;73.90;;;;;;7054907;28;20481;-79
2022/07/19 00:55:19;;;;;;;5.55;2.80;;;22.00;74.10;;;;;;7030105;28;20934;-79
2022/07/19 00:58:43;;;;;;;5.15;3.00;;;21.90;74.50;;;;;;7025225;28;20768;-80
2022/07/19 01:02:05;;;;;;;7.00;3.03;;;21.70;74.60;;;;;;7026900;28;20895;-78
2022/07/19 01:05:27;;;;;;;5.95;3.00;;;21.50;75.60;;;;;;7025496;28;20824;-77
2022/07/19 01:08:51;;;;;;;7.15;3.22;;;21.50;75.90;;;;;;7026064;28;20462;-80
2022/07/19 01:12:13;;;;;;;4.70;3.00;;;21.40;76.40;;;;;;7054738;28;20455;-78
2022/07/19 01:15:36;;;;;;;5.88;3.30;;;21.10;77.30;;;;;;7043926;28;20463;-79
2022/07/19 01:18:58;;;;;;;6.55;3.50;;;20.80;78.70;;;;;;7045265;28;21095;-78
2022/07/19 01:22:23;;;;;;;7.38;3.40;;;20.80;80.20;;;;;;7025572;28;20942;-79
2022/07/19 01:25:45;;;;;;;6.43;3.40;;;20.80;80.40;;;;;;7024603;28;20429;-78
2022/07/19 01:29:07;;;;;;;5.72;3.20;;;20.90;80.20;;;;;;7032003;28;20472;-78
2022/07/19 01:32:29;;;;;;;7.40;3.40;;;21.00;80.40;;;;;;7052680;28;20432;-77
2022/07/19 01:35:51;;;;;;;5.43;3.20;;;21.00;80.10;;;;;;7036845;28;20433;-77
2022/07/19 01:39:14;;;;;;;6.20;3.20;;;21.00;80.20;;;;;;7024318;28;20451;-79
2022/07/19 01:42:36;;;;;;;7.60;3.70;;;21.10;80.10;;;;;;7024007;28;20433;-79
2022/07/19 01:45:59;;;;;;;5.07;3.00;;;21.10;80.00;;;;;;7024989;28;20444;-77
2022/07/19 01:49:21;;;;;;;5.45;3.22;;;21.10;80.10;;;;;;7023917;28;20465;-78
2022/07/19 01:52:43;;;;;;;6.30;3.20;;;21.00;80.50;;;;;;7025099;28;20430;-79
2022/07/19 01:56:08;;;;;;;6.13;3.22;;;20.80;81.20;;;;;;7031375;28;20482;-78
2022/07/19 01:59:30;;;;;;;5.80;3.10;;;20.70;81.50;;;;;;7024178;28;20459;-78
2022/07/19 02:02:52;;;;;;;5.72;2.90;;;20.70;82.00;;;;;;7053154;28;20432;-80
2022/07/19 02:06:14;;;;;;;6.30;3.30;;;20.80;82.40;;;;;;7053170;28;20497;-78
2022/07/19 02:09:36;;;;;;;6.57;3.30;;;20.80;81.60;;;;;;7036155;28;20479;-77
2022/07/19 02:12:59;;;;;;;7.38;3.40;;;20.80;82.10;;;;;;7052674;28;20431;-78
2022/07/19 02:16:21;;;;;;;5.90;3.20;;;20.80;82.30;;;;;;7052458;28;20424;-79
2022/07/19 02:19:43;;;;;;;5.05;3.10;;;20.70;82.10;;;;;;7030469;28;20468;-79
2022/07/19 02:23:06;;;;;;;5.18;3.00;;;20.60;82.80;;;;;;7021849;28;20437;-78
2022/07/19 02:26:28;;;;;;;5.80;3.07;;;20.70;82.70;;;;;;7043397;28;20429;-79
2022/07/19 02:29:51;;;;;;;6.22;3.22;;;20.70;82.60;;;;;;7034390;28;20443;-78
2022/07/19 02:33:13;;;;;;;5.80;3.20;;;20.70;82.40;;;;;;6996085;28;20435;-79
2022/07/19 02:36:35;;;;;;;6.40;3.28;;;20.60;82.60;;;;;;7014306;28;20851;-79
2022/07/19 02:39:57;;;;;;;5.70;3.00;;;20.40;83.20;;;;;;7023269;28;20930;-79
2022/07/19 02:43:19;;;;;;;5.15;3.30;;;20.20;84.00;;;;;;7022842;28;20433;-79
2022/07/19 02:46:43;;;;;;;5.03;3.10;;;20.00;85.00;;;;;;7022819;28;20436;-78
2022/07/19 02:50:06;;;;;;;6.10;3.30;;;19.90;85.80;;;;;;7034091;28;20608;-78
2022/07/19 02:53:28;;;;;;;5.78;3.33;;;19.90;86.60;;;;;;7037081;28;20437;-79
2022/07/19 02:56:50;;;;;;;5.38;3.60;;;19.70;86.50;;;;;;7023742;28;20421;-78
2022/07/19 03:00:14;;;;;;;6.47;3.60;;;19.50;87.20;;;;;;7033886;28;20428;-76
2022/07/19 03:03:47;;;;;;;7.57;3.78;;;19.60;86.80;;;;;;7036894;28;20430;-79
2022/07/19 03:07:09;;;;;;;6.20;3.47;;;19.70;87.00;;;;;;7023343;28;20422;-75
2022/07/19 03:10:31;;;;;;;5.10;3.30;;;19.80;86.90;;;;;;7038911;28;20536;-74
2022/07/19 03:13:53;;;;;;;6.10;3.28;;;19.90;86.70;;;;;;7057394;28;20427;-79
2022/07/19 03:17:15;;;;;;;6.73;3.30;;;19.90;86.60;;;;;;7044720;28;20457;-78
2022/07/19 03:20:38;;;;;;;4.78;3.20;;;19.90;86.80;;;;;;7028184;28;20429;-78
2022/07/19 03:24:00;;;;;;;6.05;3.53;;;19.80;87.20;;;;;;7028645;28;20473;-77
2022/07/19 03:27:22;;;;;;;6.23;3.43;;;19.80;86.60;;;;;;7028575;28;20480;-76
2022/07/19 03:30:45;;;;;;;5.93;3.13;;;19.70;86.80;;;;;;7034457;28;20925;-79
2022/07/19 03:34:07;;;;;;;5.68;3.20;;;19.80;87.00;;;;;;7034794;28;20424;-78
2022/07/19 03:37:30;;;;;;;7.53;3.80;;;19.70;87.30;;;;;;7056547;28;21175;-78
2022/07/19 03:40:53;;;;;;;7.38;3.60;;;19.80;86.90;;;;;;7036704;28;20465;-77
2022/07/19 03:44:15;;;;;;;8.48;3.85;;;19.80;86.90;;;;;;7027192;28;20464;-79
2022/07/19 03:47:37;;;;;;;6.40;3.45;;;19.80;86.80;;;;;;7028454;28;20488;-79
2022/07/19 03:50:59;;;;;;;6.80;3.55;;;19.80;87.10;;;;;;7028057;28;20937;-78
2022/07/19 03:54:22;;;;;;;6.88;3.60;;;19.70;87.10;;;;;;7028092;28;20426;-78
2022/07/19 03:57:44;;;;;;;5.13;3.40;;;19.40;87.70;;;;;;7027158;28;20437;-79
2022/07/19 04:01:07;;;;;;;5.95;3.50;;;19.20;88.70;;;;;;7028695;28;20522;-79
2022/07/19 04:04:29;;;;;;;5.15;3.10;;;19.10;89.30;;;;;;7028297;28;20418;-77
2022/07/19 04:07:51;;;;;;;6.43;3.50;;;19.10;89.50;;;;;;7026494;28;20449;-79
2022/07/19 04:11:14;;;;;;;5.53;3.30;;;19.10;89.60;;;;;;7027760;28;20473;-78
2022/07/19 04:14:36;;;;;;;5.43;3.30;;;19.30;89.40;;;;;;7027473;28;20880;-78
2022/07/19 04:17:58;;;;;;;6.20;3.30;;;19.40;89.10;;;;;;7026918;28;20425;-78
2022/07/19 04:21:20;;;;;;;6.40;3.45;;;19.40;89.00;;;;;;7027550;28;20426;-79
2022/07/19 04:24:42;;;;;;;6.85;3.47;;;19.30;89.30;;;;;;7026288;28;20437;-76
2022/07/19 04:28:07;;;;;;;6.95;3.50;;;19.40;89.10;;;;;;7027517;28;20913;-79
2022/07/19 04:31:29;;;;;;;7.70;3.60;;;19.30;89.10;;;;;;7025466;28;20434;-77
2022/07/19 04:34:51;;;;;;;5.68;3.50;;;19.30;89.70;;;;;;7027192;28;20460;-78
2022/07/19 04:38:13;;;;;;;5.90;3.50;;;19.30;89.50;;;;;;7026632;28;20518;-77
2022/07/19 04:41:35;;;;;;;8.15;3.65;;;19.30;89.80;;;;;;7027101;28;20430;-78
2022/07/19 04:44:59;;;;;;;6.47;3.60;;;19.30;90.20;;;;;;7027174;28;20480;-77
2022/07/19 04:48:21;;;;;;;5.63;3.50;;;19.30;90.10;;;;;;7025955;28;20927;-78
2022/07/19 04:51:43;;;;;;;5.20;3.80;;;19.30;90.20;;;;;;7011304;28;20463;-79
2022/07/19 04:55:06;;;;;;;5.80;3.50;;;19.20;90.40;;;;;;6998780;28;20427;-77
2022/07/19 04:58:29;;;;;;;5.95;3.75;;;19.20;90.40;;;;;;6999078;28;20427;-76
2022/07/19 05:01:52;;;;;;;7.63;4.30;;;19.00;90.70;;;;;;7007719;28;20430;-78
2022/07/19 05:05:14;;;;;;;6.68;4.30;;;19.10;90.70;;;;;;7028788;28;20833;-77
2022/07/19 05:08:36;;;;;;;6.40;4.00;;;19.20;90.60;;;;;;7027015;28;20907;-76
2022/07/19 05:11:58;;;;;;;7.07;4.40;;;19.30;90.50;;;;;;7029546;28;20460;-76
2022/07/19 05:15:21;;;;;;;7.97;4.00;;;19.30;90.00;;;;;;7004300;28;20427;-76
2022/07/19 05:18:44;;;;;;;6.28;3.90;;;19.40;90.00;;;;;;7010994;28;20430;-76
2022/07/19 05:22:06;;;;;;;7.00;4.13;;;19.50;90.10;;;;;;7029991;28;20422;-79
2022/07/19 05:25:28;;;;;;;6.63;4.22;;;19.40;90.20;;;;;;7026246;28;20467;-75
2022/07/19 05:28:50;;;;;;;6.47;4.20;;;19.40;90.30;;;;;;7023819;28;20429;-76
2022/07/19 05:32:12;;;;;;;7.75;4.20;;;19.30;90.40;;;;;;7025723;28;20475;-79
2022/07/19 05:35:36;;;;;;;6.25;4.38;;;19.30;90.60;;;;;;7024951;28;20426;-78
2022/07/19 05:38:58;;;;;;;7.78;4.50;;;19.40;90.80;;;;;;7025423;28;20422;-78
2022/07/19 05:42:20;;;;;;;6.00;4.18;;;19.50;90.50;;;;;;7017747;28;20431;-77
2022/07/19 05:45:42;;;;;;;8.95;4.40;;;19.50;90.70;;;;;;7002845;28;20426;-77
2022/07/19 05:49:04;;;;;;;6.23;4.40;;;19.60;90.50;;;;;;7025149;28;20468;-76
2022/07/19 05:52:28;;;;;;;6.47;4.20;;;19.60;90.50;;;;;;7025147;28;20477;-76
2022/07/19 05:55:50;;;;;;;6.22;3.80;;;19.70;90.60;;;;;;7027657;28;20504;-77
2022/07/19 05:59:12;;;;;;;7.97;4.10;;;19.90;90.40;;;;;;7024166;28;20439;-77
2022/07/19 06:02:34;;;;;;;6.82;3.80;;;20.00;89.50;;;;;;7023847;28;20457;-78
2022/07/19 06:05:57;;;;;;;5.30;3.60;;;20.10;88.90;;;;;;7024875;28;20560;-77
2022/07/19 06:09:21;;;;;;;7.03;3.83;;;20.20;88.20;;;;;;7024837;28;20905;-77
2022/07/19 06:12:43;;;;;;;7.93;3.90;;;20.20;89.00;;;;;;7024619;28;20434;-78
2022/07/19 06:16:06;;;;;;;6.80;3.72;;;20.30;89.90;;;;;;7024360;28;20464;-77
2022/07/19 06:19:28;;;;;;;8.50;3.92;;;20.40;90.00;;;;;;7024378;28;20902;-79
2022/07/19 06:22:50;;;;;;;7.75;3.75;;;20.50;87.70;;;;;;7025407;28;20926;-75
2022/07/19 06:26:14;;;;;;;7.53;3.78;;;20.60;87.30;;;;;;7023217;28;20429;-76
2022/07/19 06:29:36;;;;;;;5.97;3.43;;;20.50;86.40;;;;;;7024197;28;20467;-77
2022/07/19 06:32:58;;;;;;;6.53;3.50;;;20.70;86.40;;;;;;7024145;28;20925;-75
2022/07/19 06:36:21;;;;;;;7.00;3.47;;;20.80;86.30;;;;;;7024580;28;20446;-74
2022/07/19 06:39:43;;;;;;;7.03;3.60;;;20.90;84.60;;;;;;7023626;28;20457;-75
2022/07/19 06:43:06;;;;;;;6.88;3.85;;;20.90;85.50;;;;;;7023909;28;20445;-74
2022/07/19 06:46:28;;;;;;;6.43;3.80;;;20.80;87.10;;;;;;7022746;28;20421;-76
2022/07/19 06:49:50;;;;;;;5.35;3.42;;;21.00;87.30;;;;;;7024054;28;20426;-77
2022/07/19 06:53:13;;;;;;;7.83;3.83;;;21.10;84.70;;;;;;7012201;28;20450;-75
2022/07/19 06:56:35;;;;;;;7.13;3.50;;;21.20;84.40;;;;;;6996173;28;20431;-77
2022/07/19 06:59:58;;;;;;;5.93;3.60;;;21.20;84.90;;;;;;7002639;28;20487;-76
2022/07/19 07:03:20;;;;;;;6.82;3.55;;;21.40;84.90;;;;;;7023508;28;20426;-77
2022/07/19 07:06:42;;;;;;;5.95;3.70;;;21.50;84.20;;;;;;7023377;28;20854;-75
2022/07/19 07:10:07;;;;;;;5.93;3.50;;;21.60;83.70;;;;;;7022891;28;20856;-75
2022/07/19 07:13:29;;;;;;;6.85;3.42;;;21.70;81.80;;;;;;7035962;28;20455;-76
2022/07/19 07:16:52;;;;;;;7.17;3.30;;;21.80;81.10;;;;;;7021938;28;20454;-75
2022/07/19 07:20:14;;;;;;;7.00;3.50;;;21.90;80.60;;;;;;7022725;28;20457;-76
2022/07/19 07:23:36;;;;;;;8.00;3.73;;;21.90;80.40;;;;;;7023101;28;20437;-78
2022/07/19 07:26:58;;;;;;;5.45;3.15;;;22.10;79.00;;;;;;7023013;28;20895;-76
2022/07/19 07:30:20;;;;;;;7.53;3.40;;;22.20;79.40;;;;;;7025139;28;20795;-77
2022/07/19 07:33:44;;;;;;;6.97;3.40;;;22.40;79.60;;;;;;7022597;28;20929;-79
2022/07/19 07:37:06;;;;;;;7.32;3.30;;;22.50;80.30;;;;;;7027680;28;20432;-78
2022/07/19 07:40:28;;;;;;;6.13;3.28;;;22.60;78.10;;;;;;7031452;28;20436;-77
2022/07/19 07:43:50;;;;;;;6.85;3.20;;;22.70;77.90;;;;;;7022847;28;20445;-79
2022/07/19 07:47:13;;;;;;;6.80;3.20;;;22.80;77.40;;;;;;7025438;28;20422;-77
2022/07/19 07:50:37;;;;;;;5.93;3.13;;;23.00;77.00;;;;;;7022734;28;20433;-77
2022/07/19 07:54:00;;;;;;;7.45;3.08;;;23.00;76.40;;;;;;7022773;28;20921;-77
2022/07/19 07:57:22;;;;;;;7.25;3.10;;;23.10;75.20;;;;;;7024866;28;20887;-76
2022/07/19 08:00:44;;;;;;;7.40;3.47;;;23.20;75.20;;;;;;7027113;28;20420;-78
2022/07/19 08:04:06;;;;;;;6.47;3.20;;;23.40;75.60;;;;;;7028104;28;20422;-79
2022/07/19 08:07:30;;;;;;;7.95;3.20;;;23.50;75.90;;;;;;7028223;28;20532;-78
2022/07/19 08:10:52;;;;;;;12.20;7.57;;;23.50;76.00;;;;;;7029771;28;20465;-76
2022/07/19 08:14:14;;;;;;;7.25;3.20;;;23.70;75.70;;;;;;7029603;28;20429;-77
2022/07/19 08:17:36;;;;;;;6.40;3.45;;;23.80;75.40;;;;;;7026963;28;20445;-78
2022/07/19 08:20:58;;;;;;;7.72;3.30;;;23.90;74.40;;;;;;7027483;28;20807;-76
2022/07/19 08:24:21;;;;;;;6.95;3.13;;;24.10;74.00;;;;;;7027169;28;20460;-77
2022/07/19 08:27:44;;;;;;;7.72;3.17;;;24.20;73.50;;;;;;7028214;28;20430;-75
2022/07/19 08:31:06;;;;;;;7.10;2.80;;;24.30;73.20;;;;;;7026516;28;20438;-77
2022/07/19 08:34:28;;;;;;;7.03;3.20;;;24.40;72.50;;;;;;7026234;28;20909;-77
2022/07/19 08:37:50;;;;;;;6.37;2.77;;;24.60;71.30;;;;;;7026781;28;20425;-78
2022/07/19 08:41:15;;;;;;;6.57;2.67;;;24.70;70.20;;;;;;7026916;28;20472;-77
2022/07/19 08:44:39;;;;;;;7.47;2.70;;;24.80;70.10;;;;;;7027330;28;20428;-78
2022/07/19 08:48:02;;;;;;;7.43;2.83;;;24.90;69.80;;;;;;7026937;28;20426;-78
2022/07/19 08:51:25;;;;;;;7.35;2.78;;;25.10;70.50;;;;;;7026557;28;20906;-77
2022/07/19 08:54:47;;;;;;;8.35;2.85;;;25.10;70.40;;;;;;7027940;28;20507;-77
2022/07/19 08:58:11;;;;;;;6.70;2.72;;;25.10;69.50;;;;;;7026269;28;20466;-78
2022/07/19 09:01:33;;;;;;;5.55;2.70;;;25.20;67.90;;;;;;7023748;28;20485;-78
2022/07/19 09:05:03;;;;;;;5.77;2.17;;;25.40;67.60;;;;;;7020112;28;20474;-80
2022/07/19 09:08:25;;;;;;;6.03;2.60;;;26.10;56.60;;;;;;7004256;28;20425;-80
2022/07/19 09:11:51;;;;;;;7.15;2.33;;;26.10;56.60;;;;;;7025749;28;20469;-79
2022/07/19 09:15:15;;;;;;;5.47;2.40;;;26.20;54.60;;;;;;7026223;28;20422;-77
2022/07/19 09:18:37;;;;;;;6.88;2.40;;;26.50;54.60;;;;;;7024738;28;20430;-77
2022/07/19 09:22:02;;;;;;;7.25;2.65;;;26.70;54.00;;;;;;7022539;28;20453;-79
2022/07/19 09:25:35;;;;;;;6.38;2.45;;;26.90;52.40;;;;;;7025617;28;20433;-78
2022/07/19 09:29:17;;;;;;;6.93;2.60;;;27.10;52.10;;;;;;7024876;28;20488;-79
2022/07/19 09:32:40;;;;;;;4.97;2.40;;;27.40;50.70;;;;;;7025004;28;20449;-78
2022/07/19 09:36:12;;;;;;;6.15;2.65;;;27.50;49.40;;;;;;7026315;28;20458;-78
2022/07/19 09:39:34;;;;;;;4.70;2.50;;;27.30;49.90;;;;;;7021927;28;20791;-79
2022/07/19 09:42:57;;;;;;;6.60;2.30;;;27.50;49.20;;;;;;7025433;28;20426;-79
2022/07/19 09:46:30;;;;;;;4.80;2.30;;;27.70;50.10;;;;;;7024293;28;20619;-80
2022/07/19 09:49:54;;;;;;;5.40;2.50;;;27.90;49.80;;;;;;7024269;28;20433;-79
2022/07/19 09:53:17;;;;;;;5.10;2.50;;;27.70;49.50;;;;;;7026369;28;20434;-80
2022/07/19 09:56:41;;;;;;;6.20;2.20;;;27.90;48.90;;;;;;7024602;28;20773;-80
2022/07/19 10:00:08;;;;;;;4.57;2.55;;;28.00;48.00;;;;;;7024477;28;20430;-79
2022/07/19 10:03:30;;;;;;;6.05;2.60;;;28.00;47.50;;;;;;7024605;28;20429;-79
2022/07/19 10:06:55;;;;;;;5.53;2.50;;;27.90;47.80;;;;;;7025418;28;20487;-79
2022/07/19 10:10:21;;;;;;;6.13;2.63;;;27.90;48.10;;;;;;7022525;28;20430;-78
2022/07/19 10:13:45;;;;;;;4.90;2.40;;;28.20;48.90;;;;;;7024561;28;20453;-77
2022/07/19 10:17:21;;;;;;;5.55;2.40;;;28.30;49.00;;;;;;7023880;28;20440;-79
2022/07/19 10:20:47;;;;;;;6.40;2.50;;;28.30;49.20;;;;;;7023870;28;20437;-79
2022/07/19 10:24:11;;;;;;;6.30;2.57;;;28.50;46.70;;;;;;7024024;28;20617;-80
2022/07/19 10:27:40;;;;;;;6.05;2.65;;;28.80;46.70;;;;;;7023732;28;20426;-79
2022/07/19 10:31:03;;;;;;;6.43;2.57;;;28.80;46.60;;;;;;7023595;28;20426;-78
2022/07/19 10:34:25;;;;;;;6.53;2.70;;;28.60;45.90;;;;;;7024353;28;20444;-80
2022/07/19 10:37:49;;;;;;;5.70;2.72;;;28.60;46.20;;;;;;7023478;28;20428;-78
2022/07/19 10:41:27;;;;;;;7.43;2.80;;;28.80;46.10;;;;;;7023593;28;20935;-78
2022/07/19 10:45:17;;;;;;;7.25;2.85;;;28.70;47.40;;;;;;7023778;28;20425;-80
2022/07/19 10:48:41;;;;;;;6.85;2.60;;;28.80;47.60;;;;;;7022054;28;20460;-79
2022/07/19 10:52:33;;;;;;;7.00;3.10;;;28.70;47.50;;;;;;7023512;28;20442;-79
2022/07/19 10:56:17;;;;;;;5.93;2.80;;;28.70;46.40;;;;;;7022669;28;20425;-79
2022/07/19 10:59:43;;;;;;;7.40;3.10;;;28.80;47.50;;;;;;7023200;28;20433;-78
2022/07/19 11:03:30;;;;;;;7.63;3.20;;;28.90;47.00;;;;;;7024858;28;20427;-75
2022/07/19 11:07:10;;;;;;;5.80;2.70;;;29.10;46.90;;;;;;7023530;28;20421;-79
2022/07/19 11:10:32;;;;;;;5.97;2.80;;;29.00;46.90;;;;;;7023617;28;20892;-79
2022/07/19 11:13:58;;;;;;;5.60;2.92;;;29.40;46.90;;;;;;7023466;28;20922;-78
2022/07/19 11:17:20;;;;;;;8.05;2.83;;;29.40;47.40;;;;;;7022771;28;20432;-79
2022/07/19 11:20:43;;;;;;;6.47;2.83;;;29.50;47.00;;;;;;7022223;28;20441;-79
2022/07/19 11:24:06;;;;;;;5.97;2.90;;;29.50;47.00;;;;;;7022984;28;20789;-80
2022/07/19 11:27:28;;;;;;;8.48;4.07;;;29.60;46.10;;;;;;7022788;28;20469;-78
2022/07/19 11:30:52;;;;;;;10.68;6.53;;;29.70;47.00;;;;;;7022809;28;20926;-78
2022/07/19 11:34:14;;;;;;;11.40;7.10;;;29.90;47.10;;;;;;7004001;28;20430;-78
2022/07/19 11:37:40;;;;;;;7.30;2.90;;;30.00;47.20;;;;;;7001575;28;20423;-79
2022/07/19 11:41:02;;;;;;;7.80;3.00;;;30.40;45.90;;;;;;7001343;28;20424;-79
2022/07/19 11:44:24;;;;;;;5.20;2.90;;;30.40;47.60;;;;;;7013290;28;20472;-76
2022/07/19 11:47:49;;;;;;;6.75;2.78;;;30.60;47.20;;;;;;7028551;28;20437;-78
2022/07/19 11:51:12;;;;;;;6.90;2.70;;;30.70;46.70;;;;;;7041740;28;20421;-79
2022/07/19 11:54:34;;;;;;;7.47;2.90;;;31.00;47.40;;;;;;7048852;28;20405;-77
2022/07/19 11:57:57;;;;;;;6.88;2.60;;;30.90;46.30;;;;;;7047832;28;20449;-78
2022/07/19 12:01:28;;;;;;;6.45;2.97;;;31.00;45.00;;;;;;7056103;28;20432;-77
2022/07/19 12:04:51;;;;;;;7.22;3.00;;;31.30;44.80;;;;;;7074127;28;20432;-77
2022/07/19 12:08:13;;;;;;;7.60;2.60;;;31.30;45.10;;;;;;7003435;28;20419;-79
2022/07/19 12:11:41;;;;;;;7.65;2.72;;;31.30;44.70;;;;;;7027529;28;20429;-78
2022/07/19 12:15:08;;;;;;;5.93;2.57;;;31.50;45.90;;;;;;7038166;28;20432;-77
2022/07/19 12:18:49;;;;;;;5.43;2.60;;;31.70;45.40;;;;;;7017350;28;20462;-78
2022/07/19 12:22:34;;;;;;;6.25;2.50;;;31.80;47.20;;;;;;7018880;28;20436;-79
2022/07/19 12:26:04;;;;;;;6.63;2.67;;;32.00;45.10;;;;;;7023833;28;20430;-76
2022/07/19 12:29:31;;;;;;;6.88;2.60;;;32.30;46.20;;;;;;7006077;28;20771;-79
2022/07/19 12:32:54;;;;;;;5.95;2.70;;;32.30;43.50;;;;;;7043095;28;20928;-78
2022/07/19 12:36:34;;;;;;;5.43;2.30;;;32.20;43.00;;;;;;7024078;28;20884;-79
2022/07/19 12:40:06;;;;;;;6.88;2.50;;;32.30;42.60;;;;;;7007876;28;20466;-77
2022/07/19 12:43:28;;;;;;;5.75;2.47;;;32.60;43.10;;;;;;6999037;28;20770;-79
2022/07/19 12:46:50;;;;;;;6.97;2.70;;;32.50;41.50;;;;;;6996870;28;20463;-76
2022/07/19 12:50:21;;;;;;;8.63;3.22;;;32.60;41.70;;;;;;6996033;28;20469;-76
2022/07/19 12:53:43;;;;;;;8.70;4.53;;;32.60;42.60;;;;;;7023122;28;20508;-76
2022/07/19 12:57:07;;;;;;;8.50;5.10;;;32.70;41.30;;;;;;7023155;28;20452;-77
2022/07/19 13:00:31;;;;;;;7.63;3.10;;;32.90;40.80;;;;;;7023497;28;20430;-77
2022/07/19 13:03:53;;;;;;;5.30;2.85;;;33.00;39.90;;;;;;7023016;28;20543;-78
2022/07/19 13:07:15;;;;;;;6.60;2.40;;;33.20;40.20;;;;;;7024058;28;20460;-77
2022/07/19 13:10:37;;;;;;;6.63;2.50;;;33.30;41.70;;;;;;7023227;28;20457;-78
2022/07/19 13:14:01;;;;;;;7.80;2.47;;;33.40;40.70;;;;;;7021013;28;20487;-77
2022/07/19 13:17:23;;;;;;;5.43;2.50;;;33.60;41.00;;;;;;7022588;28;20828;-78
2022/07/19 13:20:45;;;;;;;6.13;2.30;;;33.50;40.50;;;;;;7023738;28;20469;-81
2022/07/19 13:24:07;;;;;;;8.15;2.90;;;33.60;40.10;;;;;;7021611;28;20473;-77
2022/07/19 13:27:29;;;;;;;6.82;3.00;;;33.60;39.00;;;;;;7022555;28;20434;-77
2022/07/19 13:30:52;;;;;;;6.30;2.70;;;33.80;38.70;;;;;;7021864;28;20494;-78
2022/07/19 13:34:14;;;;;;;8.30;2.70;;;33.80;38.40;;;;;;7023703;28;20492;-76
2022/07/19 13:37:37;;;;;;;5.90;2.70;;;33.80;38.80;;;;;;7022242;28;20450;-77
2022/07/19 13:40:59;;;;;;;6.15;2.50;;;33.80;38.30;;;;;;7033144;28;20480;-79
2022/07/19 13:44:22;;;;;;;8.65;3.40;;;34.00;38.40;;;;;;7021287;28;20540;-78
2022/07/19 13:47:45;;;;;;;7.55;2.85;;;34.20;39.10;;;;;;7014632;28;20429;-78
2022/07/19 13:51:08;;;;;;;7.40;2.93;;;34.30;39.00;;;;;;7025449;28;20534;-77
2022/07/19 13:54:30;;;;;;;8.38;2.90;;;34.50;38.40;;;;;;7021360;28;20776;-76
2022/07/19 13:57:53;;;;;;;12.00;3.70;;;34.50;37.90;;;;;;7019747;28;20807;-76
2022/07/19 14:01:15;;;;;;;7.78;2.95;;;34.70;40.00;;;;;;7023443;28;20561;-78
2022/07/19 14:04:39;;;;;;;7.32;3.53;;;34.60;38.00;;;;;;7021535;28;20910;-78
2022/07/19 14:08:01;;;;;;;11.55;3.35;;;34.50;38.20;;;;;;7008293;28;20442;-78
2022/07/19 14:11:23;;;;;;;5.80;2.40;;;34.60;38.90;;;;;;6991348;28;20485;-79
2022/07/19 14:14:45;;;;;;;7.20;2.83;;;34.60;38.00;;;;;;7010619;28;20581;-76
2022/07/19 14:18:07;;;;;;;6.72;2.50;;;34.60;38.20;;;;;;7016100;28;20511;-78
2022/07/19 14:21:33;;;;;;;5.60;2.63;;;34.70;37.70;;;;;;6993539;28;20424;-80
2022/07/19 14:24:55;;;;;;;7.97;2.63;;;34.80;37.80;;;;;;7014619;28;20437;-77
2022/07/19 14:28:17;;;;;;;7.80;2.63;;;34.80;37.20;;;;;;7037169;28;20437;-80
2022/07/19 14:31:40;;;;;;;6.32;2.75;;;35.10;38.60;;;;;;7040439;28;20438;-79
2022/07/19 14:35:02;;;;;;;5.63;2.65;;;35.10;38.10;;;;;;7021152;28;20426;-77
2022/07/19 14:38:28;;;;;;;5.18;2.40;;;35.20;38.10;;;;;;7029394;28;20801;-79
2022/07/19 14:41:50;;;;;;;5.78;2.55;;;35.30;38.20;;;;;;7042134;28;20430;-80
2022/07/19 14:45:12;;;;;;;5.78;2.35;;;35.50;37.60;;;;;;7022608;28;20482;-78
2022/07/19 14:48:34;;;;;;;6.97;2.45;;;35.60;38.60;;;;;;7022680;28;20482;-79
2022/07/19 14:51:56;;;;;;;6.00;2.40;;;35.60;37.30;;;;;;7047441;28;20907;-79
2022/07/19 14:55:20;;;;;;;6.37;2.60;;;35.80;37.20;;;;;;7029515;28;20489;-78
2022/07/19 14:58:42;;;;;;;6.63;2.30;;;36.00;37.70;;;;;;7048390;28;20860;-78
2022/07/19 15:02:05;;;;;;;6.18;2.55;;;36.00;37.70;;;;;;7023310;28;20420;-80
2022/07/19 15:05:27;;;;;;;5.18;2.25;;;35.90;37.60;;;;;;7032008;28;20819;-79
2022/07/19 15:08:49;;;;;;;5.63;2.33;;;36.00;37.20;;;;;;7020813;28;20437;-78
2022/07/19 15:12:12;;;;;;;7.65;2.47;;;36.20;37.50;;;;;;7018340;28;20479;-77
2022/07/19 15:15:34;;;;;;;7.13;2.78;;;36.20;36.90;;;;;;7023384;28;20456;-77
2022/07/19 15:18:57;;;;;;;5.88;2.20;;;36.10;36.70;;;;;;7019476;28;20436;-78
2022/07/19 15:22:19;;;;;;;8.05;2.60;;;36.10;36.50;;;;;;7039346;28;20443;-78
2022/07/19 15:25:41;;;;;;;6.82;2.30;;;36.20;37.50;;;;;;7040302;28;20895;-79
2022/07/19 15:29:04;;;;;;;5.83;2.23;;;36.10;36.60;;;;;;7048538;28;20468;-77
2022/07/19 15:32:26;;;;;;;6.93;2.10;;;36.30;37.10;;;;;;7047816;28;20424;-79
2022/07/19 15:35:48;;;;;;;6.97;2.25;;;36.40;37.50;;;;;;7037833;28;20923;-79
2022/07/19 15:39:11;;;;;;;6.97;2.40;;;36.70;37.10;;;;;;7044349;28;20789;-78
2022/07/19 15:42:45;;;;;;;5.57;2.25;;;36.50;36.20;;;;;;7033795;28;20436;-79
2022/07/19 15:46:11;;;;;;;6.03;2.25;;;36.50;36.50;;;;;;7039099;28;20957;-80
2022/07/19 15:49:33;;;;;;;5.83;2.30;;;36.40;35.90;;;;;;7019764;28;20422;-80
2022/07/19 15:52:55;;;;;;;7.60;2.20;;;36.50;36.00;;;;;;7020438;28;20430;-79
2022/07/19 15:56:17;;;;;;;6.05;2.30;;;36.70;36.60;;;;;;7025813;28;20432;-79
2022/07/19 15:59:39;;;;;;;5.38;2.25;;;36.70;37.30;;;;;;7047841;28;20469;-77
2022/07/19 16:03:02;;;;;;;5.27;2.00;;;36.80;35.90;;;;;;7046447;28;20892;-78
2022/07/19 16:06:24;;;;;;;5.90;2.30;;;36.60;35.30;;;;;;7038627;28;20524;-79
2022/07/19 16:09:47;;;;;;;5.70;2.25;;;36.80;36.10;;;;;;7041821;28;20432;-79
2022/07/19 16:13:09;;;;;;;6.10;2.10;;;36.90;36.60;;;;;;7044955;28;20482;-78
2022/07/19 16:16:31;;;;;;;6.63;2.80;;;37.20;35.00;;;;;;7030272;28;20457;-79
2022/07/19 16:19:55;;;;;;;4.72;2.00;;;37.40;36.20;;;;;;7022958;28;20430;-77
2022/07/19 16:23:17;;;;;;;5.10;2.15;;;37.50;35.60;;;;;;7025889;28;20491;-79
2022/07/19 16:26:39;;;;;;;5.85;2.45;;;37.20;35.50;;;;;;7024427;28;20867;-80
2022/07/19 16:30:01;;;;;;;8.10;2.40;;;37.10;36.70;;;;;;7051606;28;20463;-80
2022/07/19 16:33:23;;;;;;;4.73;2.20;;;37.00;35.70;;;;;;7045337;28;20488;-78
2022/07/19 16:36:47;;;;;;;4.68;2.20;;;36.90;36.60;;;;;;7022741;28;20550;-77
2022/07/19 16:40:11;;;;;;;5.65;2.45;;;36.70;35.80;;;;;;7029949;28;20480;-80
2022/07/19 16:43:33;;;;;;;6.47;2.40;;;36.80;36.10;;;;;;7023296;28;20795;-80
2022/07/19 16:46:55;;;;;;;6.80;2.13;;;36.80;35.50;;;;;;7021776;28;20468;-79
2022/07/19 16:50:18;;;;;;;4.68;2.30;;;36.80;36.10;;;;;;7022902;28;20957;-77
2022/07/19 16:53:41;;;;;;;6.60;2.65;;;36.80;35.70;;;;;;7023468;28;20484;-78
2022/07/19 16:57:03;;;;;;;7.75;2.30;;;36.90;36.70;;;;;;7026487;28;20969;-81
2022/07/19 17:00:25;;;;;;;5.95;2.60;;;36.90;36.30;;;;;;7040580;28;20554;-77
2022/07/19 17:03:48;;;;;;;5.93;2.53;;;36.70;35.20;;;;;;7049233;28;20462;-80
2022/07/19 17:07:10;;;;;;;6.70;2.60;;;36.90;36.80;;;;;;7028798;28;20437;-76
2022/07/19 17:10:33;;;;;;;6.00;2.60;;;36.90;35.90;;;;;;7009333;28;20793;-80
2022/07/19 17:13:55;;;;;;;6.13;2.65;;;36.80;36.10;;;;;;7020584;28;20433;-78
2022/07/19 17:17:18;;;;;;;5.28;2.58;;;36.80;36.90;;;;;;7021053;28;20911;-78
2022/07/19 17:20:40;;;;;;;7.03;3.03;;;37.00;37.30;;;;;;7023776;28;20483;-79
2022/07/19 17:24:02;;;;;;;8.40;3.15;;;37.10;36.30;;;;;;7021845;28;20453;-78
2022/07/19 17:27:26;;;;;;;6.33;3.23;;;37.00;36.50;;;;;;7034188;28;20535;-76
2022/07/19 17:30:48;;;;;;;7.50;4.70;;;37.10;36.70;;;;;;7034377;28;20458;-79
2022/07/19 17:34:10;;;;;;;7.87;3.63;;;37.00;36.60;;;;;;7003835;28;20477;-79
2022/07/19 17:37:32;;;;;;;7.03;3.40;;;37.00;36.90;;;;;;7042674;28;20428;-77